Highgate Center, Vermont
Current Conditions -  °F | °C
As of 8:35 PM on Tuesday 27 Jan 2015 (Local Time) from KFSO Reporting Station
Overcast Overcast  
Wind Chill: -9°   Ceiling: 9000
Heat Index:   Visibility: 10mi
Dew Point:   Wind: 17mph
Humidity: 65%   Direction: 360°N
Pressure: 29.98"   Gusts: 26mph
Location:  44.94°N, 73.04°W
Report Text: KFSO 280135Z AUTO 36015G23KT 10SM SCT046 OVC090 M13/M18 A2998 RMK AO2 T11271180
Loading
Personal Weather Stations






























Interactive Weather Map New forecast layout! Learn more

10-Day Weather Forecast

Advertisements
Track Severe Weather on mobile